createdAt,value
2019-03-22T00:01:36.863Z,85031.64
2019-03-22T00:04:06.621Z,84948.13
2019-03-22T00:06:36.414Z,84923.59
2019-03-22T00:09:07.581Z,84898.53
2019-03-22T00:11:37.385Z,84877.31
2019-03-22T00:14:07.204Z,84601.04
2019-03-22T00:16:36.977Z,84615.13
2019-03-22T00:19:06.818Z,84621.64
2019-03-22T00:21:36.628Z,84621.64
2019-03-22T00:24:06.420Z,84472.48
2019-03-22T00:26:37.077Z,84434.59
2019-03-22T00:29:06.952Z,84368.52
2019-03-22T00:31:36.748Z,84237.06
2019-03-22T00:34:06.568Z,84125.97
2019-03-22T00:36:36.483Z,84052.86
2019-03-22T00:39:06.657Z,84070.58
2019-03-22T00:41:36.450Z,84058.30
2019-03-22T00:44:06.241Z,84016.25
2019-03-22T00:46:36.138Z,83934.00
2019-03-22T00:49:05.971Z,83875.49
2019-03-22T00:51:35.757Z,83875.49
2019-03-22T00:54:05.591Z,83897.28
2019-03-22T00:56:35.385Z,83979.89
2019-03-22T00:59:05.371Z,83676.81
2019-03-22T01:01:35.147Z,83676.81
2019-03-22T01:04:05.098Z,83719.30
2019-03-22T01:06:34.805Z,83593.00
2019-03-22T01:09:05.459Z,83298.61
2019-03-22T01:11:35.209Z,83249.01
2019-03-22T01:14:05.000Z,83029.03
2019-03-22T01:16:34.802Z,82747.16
2019-03-22T01:19:04.619Z,82631.37
2019-03-22T01:21:34.386Z,82656.62
2019-03-22T01:24:04.615Z,82726.36
2019-03-22T01:26:34.450Z,82433.61
2019-03-22T01:29:04.231Z,82272.03
2019-03-22T01:31:34.002Z,82310.63
2019-03-22T01:34:03.815Z,82189.50
2019-03-22T01:36:33.585Z,82379.75
2019-03-22T01:39:03.804Z,82379.75
2019-03-22T01:41:33.612Z,82194.55
2019-03-22T01:44:03.412Z,82239.61
2019-03-22T01:46:33.297Z,81983.41
2019-03-22T01:49:03.079Z,82014.77
2019-03-22T01:51:32.921Z,81938.00
2019-03-22T01:54:02.812Z,81898.33
2019-03-22T01:56:32.637Z,81817.17
2019-03-22T01:59:02.786Z,81817.17
2019-03-22T02:01:32.550Z,81765.57
2019-03-22T02:04:02.400Z,81033.98
2019-03-22T02:06:32.186Z,81033.98
2019-03-22T02:09:01.849Z,81647.16
2019-03-22T02:11:31.947Z,81947.34
2019-03-22T02:14:01.737Z,81947.34
2019-03-22T02:16:32.439Z,81850.34
2019-03-22T02:19:02.287Z,81850.34
2019-03-22T02:21:33.538Z,81480.95
2019-03-22T02:24:03.317Z,81480.95
2019-03-22T02:26:33.131Z,81604.88
2019-03-22T02:29:02.914Z,81669.87
2019-03-22T02:31:32.654Z,81753.69
2019-03-22T02:34:02.487Z,81532.42
2019-03-22T02:36:32.240Z,81457.03
2019-03-22T02:39:02.011Z,81477.95
2019-03-22T02:41:31.831Z,81448.36
2019-03-22T02:44:01.538Z,81448.36
2019-03-22T02:46:31.430Z,81503.52
2019-03-22T02:49:01.187Z,81507.08
2019-03-22T02:51:30.933Z,81559.88
2019-03-22T02:54:00.992Z,81670.41
2019-03-22T02:56:30.792Z,81657.35
2019-03-22T02:59:00.640Z,81632.87
2019-03-22T03:01:30.525Z,81549.23
2019-03-22T03:04:00.326Z,81549.23
2019-03-22T03:06:30.126Z,81081.54
2019-03-22T03:09:00.145Z,81081.54
2019-03-22T03:11:29.973Z,80972.42
2019-03-22T03:13:59.754Z,80972.42
2019-03-22T03:16:29.617Z,81043.60
2019-03-22T03:18:59.379Z,81043.60
2019-03-22T03:21:29.176Z,80935.51
2019-03-22T03:23:59.338Z,80856.70
2019-03-22T03:26:29.117Z,80856.70
2019-03-22T03:28:58.880Z,80807.54
2019-03-22T03:31:28.579Z,80718.49
2019-03-22T03:33:58.345Z,80488.98
2019-03-22T03:36:28.089Z,80277.76
2019-03-22T03:38:57.931Z,80378.79
2019-03-22T03:41:27.694Z,80463.86
2019-03-22T03:43:57.714Z,80521.45
2019-03-22T03:46:27.674Z,80397.51
2019-03-22T03:48:57.922Z,80455.55
2019-03-22T03:51:28.108Z,80427.73
2019-03-22T03:53:58.096Z,80448.21
2019-03-22T03:56:27.917Z,80120.70
2019-03-22T03:58:58.169Z,79829.57
2019-03-22T04:01:28.037Z,79829.57
2019-03-22T04:03:57.819Z,79713.42
2019-03-22T04:06:27.554Z,79538.69
2019-03-22T04:08:57.471Z,79521.00
2019-03-22T04:11:27.301Z,79581.68
2019-03-22T04:13:57.110Z,79581.68
2019-03-22T04:16:27.331Z,79747.80
2019-03-22T04:18:57.106Z,79713.42
2019-03-22T04:21:26.838Z,79713.42
2019-03-22T04:23:56.417Z,79552.55
2019-03-22T04:26:26.257Z,79358.72
2019-03-22T04:29:07.543Z,79358.72
2019-03-22T04:31:27.567Z,79292.08
2019-03-22T04:33:57.392Z,78998.48
2019-03-22T04:36:27.240Z,78658.77
2019-03-22T04:38:57.017Z,78658.77
2019-03-22T04:41:26.811Z,78440.45
2019-03-22T04:43:56.619Z,79072.45
2019-03-22T04:46:26.456Z,79072.45
2019-03-22T04:48:56.750Z,79185.14
2019-03-22T04:51:26.823Z,78586.95
2019-03-22T04:53:58.362Z,79516.87
2019-03-22T04:56:29.115Z,79741.51
2019-03-22T04:58:59.122Z,79741.51
2019-03-22T05:01:29.828Z,79839.42
2019-03-22T05:03:59.628Z,79770.36
2019-03-22T05:06:30.224Z,79802.31
2019-03-22T05:09:01.150Z,80095.09
2019-03-22T05:11:31.065Z,80095.09
2019-03-22T05:14:02.602Z,80138.08
2019-03-22T05:16:33.587Z,80244.17
2019-03-22T05:19:04.016Z,81177.20
2019-03-22T05:21:34.198Z,82351.11
2019-03-22T05:24:05.585Z,84587.78
2019-03-22T05:26:36.817Z,84587.78
2019-03-22T05:29:07.296Z,85365.60
2019-03-22T05:31:57.975Z,85598.75
2019-03-22T05:34:28.436Z,85774.94
2019-03-22T05:36:58.338Z,86080.08
2019-03-22T05:39:28.102Z,85808.42
2019-03-22T05:41:58.618Z,86077.70
2019-03-22T05:44:28.394Z,86498.84
2019-03-22T05:46:58.284Z,87067.85
2019-03-22T05:49:28.069Z,87094.15
2019-03-22T05:51:57.996Z,87367.38
2019-03-22T05:54:27.756Z,87792.19
2019-03-22T05:56:57.549Z,87743.41
2019-03-22T05:59:27.401Z,88202.30
2019-03-22T06:01:57.199Z,89025.66
2019-03-22T06:04:26.881Z,89322.33
2019-03-22T06:06:56.758Z,89897.47
2019-03-22T06:09:26.594Z,90409.45
2019-03-22T06:11:56.422Z,90905.41
2019-03-22T06:14:26.222Z,91610.86
2019-03-22T06:16:55.995Z,92275.62
2019-03-22T06:19:25.785Z,92729.73
2019-03-22T06:21:55.597Z,93283.78
2019-03-22T06:24:26.579Z,93719.47
2019-03-22T06:26:56.538Z,94130.03
2019-03-22T06:29:27.070Z,94219.05
2019-03-22T06:31:58.663Z,94247.58
2019-03-22T06:34:28.466Z,94233.19
2019-03-22T06:36:58.343Z,94359.14
2019-03-22T06:39:28.124Z,94460.85
2019-03-22T06:41:57.932Z,94665.77
2019-03-22T06:44:27.824Z,94797.66
2019-03-22T06:46:58.551Z,94678.84
2019-03-22T06:49:29.468Z,94787.36
2019-03-22T06:51:59.556Z,94857.50
2019-03-22T06:54:31.898Z,94868.59
2019-03-22T06:57:00.777Z,95040.48
2019-03-22T06:59:32.160Z,95110.06
2019-03-22T07:02:01.969Z,95233.32
2019-03-22T07:04:31.678Z,95254.25
2019-03-22T07:07:01.442Z,95465.84
2019-03-22T07:09:31.193Z,95623.83
2019-03-22T07:12:02.693Z,95731.22
2019-03-22T07:14:32.471Z,95768.29
2019-03-22T07:17:02.292Z,95786.33
2019-03-22T07:19:32.108Z,95900.13
2019-03-22T07:22:01.836Z,95987.58
2019-03-22T07:24:31.585Z,96170.48
2019-03-22T07:27:01.299Z,96261.73
2019-03-22T07:29:31.123Z,96385.64
2019-03-22T07:32:00.820Z,96485.13
2019-03-22T07:34:30.613Z,96543.56
2019-03-22T07:37:00.409Z,96638.77
2019-03-22T07:39:30.174Z,96686.58
2019-03-22T07:41:59.731Z,96712.86
2019-03-22T07:44:29.905Z,96763.28
2019-03-22T07:46:59.675Z,96828.42
2019-03-22T07:49:30.364Z,96867.59
2019-03-22T07:52:00.214Z,96865.63
2019-03-22T07:54:30.040Z,96898.06
2019-03-22T07:56:59.744Z,96911.61
2019-03-22T07:59:29.581Z,96911.17
2019-03-22T08:01:59.384Z,96907.88
2019-03-22T08:04:29.088Z,96918.41
2019-03-22T08:07:01.242Z,96922.45
2019-03-22T08:09:30.467Z,96928.22
2019-03-22T08:12:00.599Z,96926.30
2019-03-22T08:14:30.461Z,96920.97
2019-03-22T08:17:00.120Z,96896.06
2019-03-22T08:19:30.039Z,96888.22
2019-03-22T08:21:59.870Z,96891.39
2019-03-22T08:24:30.528Z,96869.59
2019-03-22T08:27:00.320Z,96880.03
2019-03-22T08:29:31.153Z,96840.45
2019-03-22T08:32:00.938Z,96832.51
2019-03-22T08:34:30.799Z,96770.66
2019-03-22T08:37:00.693Z,96801.11
2019-03-22T08:39:30.488Z,96742.36
2019-03-22T08:42:00.325Z,96713.44
2019-03-22T08:44:30.126Z,96659.44
2019-03-22T08:47:00.859Z,96649.17
2019-03-22T08:49:30.846Z,96600.31
2019-03-22T08:52:03.931Z,96573.54
2019-03-22T08:54:33.727Z,96473.61
2019-03-22T08:57:03.534Z,96408.01
2019-03-22T08:59:33.344Z,96332.06
2019-03-22T09:02:03.156Z,96291.23
2019-03-22T09:04:32.943Z,96335.22
2019-03-22T09:07:02.880Z,96247.44
2019-03-22T09:09:41.469Z,96182.53
2019-03-22T09:12:07.154Z,96151.33
2019-03-22T09:14:37.053Z,96212.81
2019-03-22T09:17:06.931Z,96252.78
2019-03-22T09:19:37.086Z,96281.88
2019-03-22T09:22:06.949Z,96139.86
2019-03-22T09:24:39.378Z,96088.69
2019-03-22T09:27:08.290Z,96122.72
2019-03-22T09:29:37.984Z,96042.37
2019-03-22T09:32:07.712Z,95972.41
2019-03-22T09:34:39.223Z,95917.06
2019-03-22T09:37:09.299Z,95950.41
2019-03-22T09:39:41.243Z,95958.70
2019-03-22T09:42:11.795Z,95928.58
2019-03-22T09:44:44.661Z,95845.90
2019-03-22T09:47:16.916Z,95790.47
2019-03-22T09:49:46.937Z,95786.59
2019-03-22T09:52:16.696Z,95734.11
2019-03-22T09:54:47.566Z,95776.75
2019-03-22T09:57:17.651Z,95828.98
2019-03-22T09:59:50.091Z,95846.77
2019-03-22T10:02:20.127Z,95866.20
2019-03-22T10:04:49.931Z,95862.77
2019-03-22T10:07:19.801Z,95937.95
2019-03-22T10:09:49.705Z,95969.47
2019-03-22T10:12:19.493Z,95903.75
2019-03-22T10:14:49.278Z,95865.45
2019-03-22T10:17:19.087Z,95865.45
2019-03-22T10:19:48.833Z,95873.17
2019-03-22T10:22:18.832Z,95843.34
2019-03-22T10:24:48.623Z,95744.70
2019-03-22T10:27:20.376Z,95764.26
2019-03-22T10:29:50.349Z,95714.61
2019-03-22T10:32:20.156Z,95668.25
2019-03-22T10:34:50.113Z,95716.55
2019-03-22T10:37:19.867Z,95668.98
2019-03-22T10:39:49.771Z,95697.08
2019-03-22T10:42:19.647Z,95752.23
2019-03-22T10:44:51.085Z,95740.73
2019-03-22T10:47:20.902Z,95764.84
2019-03-22T10:49:50.786Z,95746.52
2019-03-22T10:52:20.620Z,95814.45
2019-03-22T10:54:50.551Z,95931.55
2019-03-22T10:57:20.406Z,95954.02
2019-03-22T10:59:50.886Z,95927.23
2019-03-22T11:02:20.815Z,95935.72
2019-03-22T11:04:50.937Z,95938.55
2019-03-22T11:07:20.778Z,95991.05
2019-03-22T11:09:50.678Z,96035.19
2019-03-22T11:12:20.452Z,96027.02
2019-03-22T11:14:50.353Z,95975.48
2019-03-22T11:17:20.157Z,95957.83
2019-03-22T11:19:50.076Z,95973.45
2019-03-22T11:22:19.937Z,95941.59
2019-03-22T11:24:49.687Z,95950.88
2019-03-22T11:27:19.718Z,95951.70
2019-03-22T11:29:49.538Z,95960.50
2019-03-22T11:32:19.508Z,95919.00
2019-03-22T11:34:49.319Z,95900.42
2019-03-22T11:37:19.078Z,95828.29
2019-03-22T11:39:48.826Z,95820.00
2019-03-22T11:42:19.556Z,95825.84
2019-03-22T11:44:49.458Z,95782.17
2019-03-22T11:47:19.259Z,95670.84
2019-03-22T11:49:49.056Z,95709.77
2019-03-22T11:52:18.836Z,95691.68
2019-03-22T11:54:48.640Z,95675.84
2019-03-22T11:57:18.475Z,95719.47
2019-03-22T11:59:48.354Z,95641.37
2019-03-22T12:02:22.302Z,95621.73
2019-03-22T12:04:49.590Z,95605.78
2019-03-22T12:07:19.344Z,95588.37
2019-03-22T12:09:49.092Z,95551.58
2019-03-22T12:12:19.517Z,95562.20
2019-03-22T12:14:49.329Z,95636.05
2019-03-22T12:17:19.117Z,95670.06
2019-03-22T12:19:48.971Z,95657.11
2019-03-22T12:22:20.330Z,95631.03
2019-03-22T12:24:50.206Z,95615.17
2019-03-22T12:27:19.991Z,95618.61
2019-03-22T12:29:50.388Z,95628.11
2019-03-22T12:32:20.143Z,95646.73
2019-03-22T12:34:53.919Z,95668.19
2019-03-22T12:37:23.794Z,95595.95
2019-03-22T12:39:53.637Z,95622.34
2019-03-22T12:42:23.595Z,95681.34
2019-03-22T12:44:53.404Z,95689.12
2019-03-22T12:47:23.378Z,95671.90
2019-03-22T12:49:53.191Z,95710.94
2019-03-22T12:52:22.917Z,95728.52
2019-03-22T12:54:52.661Z,95724.84
2019-03-22T12:57:23.845Z,95709.42
2019-03-22T12:59:53.610Z,95688.06
2019-03-22T13:02:23.325Z,95670.31
2019-03-22T13:04:53.135Z,95653.80
2019-03-22T13:07:22.946Z,95672.11
2019-03-22T13:09:52.767Z,95662.02
2019-03-22T13:12:22.627Z,95665.66
2019-03-22T13:14:52.364Z,95685.33
2019-03-22T13:17:22.118Z,95740.23
2019-03-22T13:19:51.857Z,95733.80
2019-03-22T13:22:21.590Z,95678.47
2019-03-22T13:24:51.315Z,95745.80
2019-03-22T13:27:21.110Z,95765.31
2019-03-22T13:29:50.920Z,95783.89
2019-03-22T13:32:20.729Z,95766.92
2019-03-22T13:34:51.000Z,95757.29
2019-03-22T13:37:20.883Z,95747.00
2019-03-22T13:39:50.645Z,95731.67
2019-03-22T13:42:20.443Z,95739.38
2019-03-22T13:44:50.162Z,95757.30
2019-03-22T13:47:19.962Z,95802.89
2019-03-22T13:49:49.726Z,95796.91
2019-03-22T13:52:19.737Z,95820.61
2019-03-22T13:54:49.508Z,95846.23
2019-03-22T13:57:19.349Z,95834.17
2019-03-22T13:59:51.406Z,95831.23
2019-03-22T14:02:23.038Z,95830.12
2019-03-22T14:04:54.129Z,95804.75
2019-03-22T14:07:24.075Z,95799.17
2019-03-22T14:09:53.863Z,95781.11
2019-03-22T14:12:23.691Z,95762.44
2019-03-22T14:14:53.463Z,95765.46
2019-03-22T14:17:24.362Z,95729.77
2019-03-22T14:19:54.526Z,95696.12
2019-03-22T14:22:26.086Z,95648.67
2019-03-22T14:24:55.890Z,95638.85
2019-03-22T14:27:26.075Z,95636.55
2019-03-22T14:29:56.297Z,95644.75
2019-03-22T14:32:26.113Z,95649.13
2019-03-22T14:34:57.253Z,95656.09
2019-03-22T14:37:26.978Z,95682.70
2019-03-22T14:39:56.829Z,95668.88
2019-03-22T14:42:26.592Z,95653.45
2019-03-22T14:44:58.391Z,95621.38
2019-03-22T14:47:28.286Z,95616.91
2019-03-22T14:49:58.270Z,95613.83
2019-03-22T14:52:28.788Z,95622.55
2019-03-22T14:54:58.614Z,95607.33
2019-03-22T14:57:28.741Z,95647.78
2019-03-22T15:00:00.289Z,95671.97
2019-03-22T15:02:30.211Z,95687.16
2019-03-22T15:05:00.015Z,95714.21
2019-03-22T15:07:29.944Z,95744.22
2019-03-22T15:09:59.795Z,95779.74
2019-03-22T15:12:29.758Z,95797.83
2019-03-22T15:15:03.598Z,95778.05
2019-03-22T15:17:41.385Z,95796.41
2019-03-22T15:20:26.612Z,95805.00
2019-03-22T15:23:04.054Z,95809.84
2019-03-22T15:25:40.993Z,95820.38
2019-03-22T15:28:15.655Z,95808.23
2019-03-22T15:30:53.155Z,95830.07
2019-03-22T15:33:34.473Z,95843.31
2019-03-22T15:36:09.426Z,95868.06
2019-03-22T15:38:57.450Z,95876.33
2019-03-22T15:41:27.310Z,95908.84
2019-03-22T15:43:57.413Z,95937.17
2019-03-22T15:46:28.038Z,95969.70
2019-03-22T15:48:57.927Z,95985.94
2019-03-22T15:51:27.652Z,95994.92
2019-03-22T15:53:58.580Z,96015.11
2019-03-22T15:56:28.406Z,96032.38
2019-03-22T15:58:58.200Z,96046.11
2019-03-22T16:01:27.955Z,96072.81
2019-03-22T16:03:57.743Z,96095.93
2019-03-22T16:06:27.616Z,96117.03
2019-03-22T16:08:57.447Z,96124.62
2019-03-22T16:11:27.242Z,96142.93
2019-03-22T16:13:57.936Z,96153.13
2019-03-22T16:16:30.160Z,96173.20
2019-03-22T16:18:59.977Z,96176.44
2019-03-22T16:21:29.704Z,96173.84
2019-03-22T16:23:59.516Z,96185.33
2019-03-22T16:26:29.389Z,96189.36
2019-03-22T16:28:59.180Z,96195.96
2019-03-22T16:31:28.970Z,96207.22
2019-03-22T16:33:59.279Z,96234.81
2019-03-22T16:36:30.195Z,96249.24
2019-03-22T16:39:00.448Z,96265.70
2019-03-22T16:41:30.255Z,96276.79
2019-03-22T16:44:01.820Z,96286.73
2019-03-22T16:46:32.192Z,96295.86
2019-03-22T16:49:02.885Z,96301.80
2019-03-22T16:51:32.720Z,96298.71
2019-03-22T16:54:02.565Z,96302.02
2019-03-22T16:56:32.384Z,96291.69
2019-03-22T16:59:02.195Z,96280.10
2019-03-22T17:01:31.996Z,96282.67
2019-03-22T17:04:04.629Z,96274.25
2019-03-22T17:06:33.381Z,96256.98
2019-03-22T17:09:03.984Z,96240.06
2019-03-22T17:11:33.775Z,96223.39
2019-03-22T17:14:03.818Z,96211.85
2019-03-22T17:16:34.823Z,96257.38
2019-03-22T17:19:04.576Z,96291.57
2019-03-22T17:21:34.386Z,96278.83
2019-03-22T17:24:04.260Z,96253.07
2019-03-22T17:26:34.073Z,96225.61
2019-03-22T17:29:03.844Z,96196.58
2019-03-22T17:31:33.621Z,96151.23
2019-03-22T17:34:03.360Z,96110.11
2019-03-22T17:36:33.117Z,96060.27
2019-03-22T17:39:02.919Z,96033.81
2019-03-22T17:41:32.626Z,95980.48
2019-03-22T17:44:02.371Z,95953.63
2019-03-22T17:46:32.330Z,95903.68
2019-03-22T17:49:03.075Z,95864.88
2019-03-22T17:51:32.853Z,95834.12
2019-03-22T17:54:02.558Z,95803.04
2019-03-22T17:56:32.319Z,95789.38
2019-03-22T17:59:02.086Z,95753.37
2019-03-22T18:01:31.879Z,95758.89
2019-03-22T18:04:01.677Z,95875.67
2019-03-22T18:06:31.596Z,95935.16
2019-03-22T18:09:01.538Z,96017.27
2019-03-22T18:11:31.299Z,95979.06
2019-03-22T18:14:01.089Z,96102.50
2019-03-22T18:16:31.005Z,96140.75
2019-03-22T18:19:00.752Z,96145.09
2019-03-22T18:21:30.595Z,96165.00
2019-03-22T18:24:00.436Z,96123.47
2019-03-22T18:26:30.636Z,96038.31
2019-03-22T18:29:00.506Z,95986.23
2019-03-22T18:31:30.650Z,95948.69
2019-03-22T18:34:00.400Z,95926.09
2019-03-22T18:36:30.219Z,95850.19
2019-03-22T18:39:00.172Z,95768.34
2019-03-22T18:41:30.010Z,95680.99
2019-03-22T18:43:59.797Z,95661.17
2019-03-22T18:46:29.737Z,95598.49
2019-03-22T18:48:59.586Z,95626.20
2019-03-22T18:51:29.471Z,95605.06
2019-03-22T18:53:59.447Z,95584.54
2019-03-22T18:56:29.248Z,95791.01
2019-03-22T18:58:58.989Z,95945.34
2019-03-22T19:01:28.916Z,95794.20
2019-03-22T19:03:58.741Z,95665.11
2019-03-22T19:06:28.520Z,95563.24
2019-03-22T19:08:58.293Z,95608.55
2019-03-22T19:11:28.260Z,95710.00
2019-03-22T19:13:58.085Z,95757.38
2019-03-22T19:16:31.519Z,95776.98
2019-03-22T19:19:03.336Z,95720.56
2019-03-22T19:21:33.125Z,95692.09
2019-03-22T19:24:02.938Z,95598.83
2019-03-22T19:26:32.815Z,95606.10
2019-03-22T19:29:02.665Z,95453.39
2019-03-22T19:31:32.464Z,95294.61
2019-03-22T19:34:02.658Z,95169.03
2019-03-22T19:36:34.338Z,95144.11
2019-03-22T19:39:05.837Z,95074.54
2019-03-22T19:41:36.310Z,95075.09
2019-03-22T19:44:06.099Z,95080.84
2019-03-22T19:46:37.980Z,95082.88
2019-03-22T19:49:07.812Z,95106.69
2019-03-22T19:51:38.786Z,94960.45
2019-03-22T19:54:08.618Z,94799.25
2019-03-22T19:56:38.484Z,94701.53
2019-03-22T19:59:08.275Z,94569.11
2019-03-22T20:01:37.955Z,94480.28
2019-03-22T20:04:08.334Z,94414.84
2019-03-22T20:06:38.505Z,94352.51
2019-03-22T20:09:10.048Z,94227.28
2019-03-22T20:11:40.801Z,94261.89
2019-03-22T20:14:10.581Z,94303.82
2019-03-22T20:16:40.403Z,94596.13
2019-03-22T20:19:10.333Z,94741.05
2019-03-22T20:21:40.185Z,94085.79
2019-03-22T20:24:10.631Z,94653.79
2019-03-22T20:26:42.686Z,94578.98
2019-03-22T20:29:12.431Z,94454.42
2019-03-22T20:31:42.303Z,94312.83
2019-03-22T20:34:12.073Z,94163.86
2019-03-22T20:36:43.781Z,94032.43
2019-03-22T20:39:13.441Z,93911.70
2019-03-22T20:41:43.205Z,93807.61
2019-03-22T20:44:13.201Z,93703.36
2019-03-22T20:46:43.034Z,93949.45
2019-03-22T20:49:12.865Z,93945.92
2019-03-22T20:51:42.667Z,93889.96
2019-03-22T20:54:12.575Z,93878.98
2019-03-22T20:56:42.426Z,93935.20
2019-03-22T20:59:12.175Z,94154.58
2019-03-22T21:01:41.976Z,94235.89
2019-03-22T21:04:11.792Z,94358.49
2019-03-22T21:06:41.598Z,94195.06
2019-03-22T21:09:11.338Z,94014.64
2019-03-22T21:11:41.198Z,93822.30
2019-03-22T21:14:11.002Z,93632.25
2019-03-22T21:16:40.885Z,93354.08
2019-03-22T21:19:10.674Z,93160.23
2019-03-22T21:21:40.418Z,92973.73
2019-03-22T21:24:10.212Z,92871.74
2019-03-22T21:26:39.993Z,92689.32
2019-03-22T21:29:09.793Z,92696.45
2019-03-22T21:31:39.600Z,92647.89
2019-03-22T21:34:09.671Z,92638.63
2019-03-22T21:36:39.466Z,92653.47
2019-03-22T21:39:09.269Z,92905.16
2019-03-22T21:41:39.325Z,92953.67
2019-03-22T21:44:09.096Z,93227.22
2019-03-22T21:46:38.926Z,93403.47
2019-03-22T21:49:08.760Z,93379.86
2019-03-22T21:51:38.561Z,93407.94
2019-03-22T21:54:08.364Z,93319.62
2019-03-22T21:56:38.110Z,93163.96
2019-03-22T21:59:07.911Z,92932.48
2019-03-22T22:01:37.603Z,92701.17
2019-03-22T22:04:07.798Z,92533.36
2019-03-22T22:06:37.482Z,92364.95
2019-03-22T22:09:07.318Z,92338.18
2019-03-22T22:11:37.070Z,92268.65
2019-03-22T22:14:06.829Z,92258.70
2019-03-22T22:16:36.519Z,92412.24
2019-03-22T22:19:06.336Z,92481.16
2019-03-22T22:21:36.151Z,92342.63
2019-03-22T22:24:06.099Z,92237.93
2019-03-22T22:26:35.893Z,92301.07
2019-03-22T22:29:05.665Z,92441.34
2019-03-22T22:31:35.366Z,92508.18
2019-03-22T22:34:05.132Z,92662.78
2019-03-22T22:36:34.927Z,92816.70
2019-03-22T22:39:06.397Z,92776.72
2019-03-22T22:41:36.152Z,92700.61
2019-03-22T22:44:05.825Z,92718.22
2019-03-22T22:46:35.605Z,92631.83
2019-03-22T22:49:05.379Z,92486.92
2019-03-22T22:51:35.220Z,92301.29
2019-03-22T22:54:05.019Z,92196.02
2019-03-22T22:56:34.973Z,92140.93
2019-03-22T22:59:04.783Z,92221.38
2019-03-22T23:01:34.497Z,92329.33
2019-03-22T23:04:04.248Z,92376.36
2019-03-22T23:06:34.068Z,92259.88
2019-03-22T23:09:04.046Z,92324.61
2019-03-22T23:11:33.792Z,92394.20
2019-03-22T23:14:03.605Z,92486.49
2019-03-22T23:16:33.515Z,92420.75
2019-03-22T23:19:03.267Z,92238.58
2019-03-22T23:21:33.037Z,92065.53
2019-03-22T23:24:02.815Z,91958.61
2019-03-22T23:26:32.651Z,91800.69
2019-03-22T23:29:02.492Z,91645.53
2019-03-22T23:31:32.324Z,91529.78
2019-03-22T23:34:02.196Z,91422.67
2019-03-22T23:36:31.979Z,91326.31
2019-03-22T23:39:01.776Z,91300.25
2019-03-22T23:41:31.500Z,91198.70
2019-03-22T23:44:01.314Z,91058.30
2019-03-22T23:46:31.152Z,90954.58
2019-03-22T23:49:00.955Z,90900.73
2019-03-22T23:51:30.846Z,90870.67
2019-03-22T23:54:00.647Z,90904.46
2019-03-22T23:56:30.445Z,90949.86
2019-03-22T23:59:00.245Z,90975.44
